Aérodrome :
LOGIN :

S'inscrire | Disclaimer

   EN    FR    IT 

 










Légende :    VFR   VFR Marginal   IFR   IFR Intensif   IFR Très Intensif
Visi : 
Plafond : 
>= 8 km
>= 3000ft
5 à 8 km
1000 à 3000 ft
1500m à 5 km
500 à 1000 ft
800 à 1500m
200 à 500 ft
< 800m
< 200 ft
Symboles :   Orages  Brouillard  Fortes neiges  Fortes précipitations  Vent > 20 kt
SIGMETs :   Divers  Orages  Givrage  Turbulence  Onde Orograph.  Cendres Volcan.







- Altitude de l'aérodrome : 46 ft
- Code IATA : SNN


EINN - Shannon

DERNIER METAR :
  • 200100Z 07002KT 9999 FEW025 04/04 Q1026 NOSIG

METARs EXPIRÉS :
  • 200030Z 09001KT 9999 FEW025 04/03 Q1026 NOSIG
  • 200000Z 03001KT 9999 FEW025 04/03 Q1025 NOSIG
  • 192330Z 29003KT 9999 FEW025 04/04 Q1025 NOSIG
  • 192300Z 26005KT 9999 FEW025 04/04 Q1025 NOSIG
  • 192230Z 24004KT 9999 FEW025 05/04 Q1025 NOSIG

TAF COR TAF EINN
Valide du 20 à 00h jusqu'au 21 à 00h UTC


192346Z 2000/2024 28005KT 9999 FEW025
TEMPO 2000/2009 VRB03KT
PROB30
TEMPO 2005/2009 2500 BR SCT003
BECMG 2009/2012 34007KT
BECMG 2021/2024 04006KT
Pas de NOTAMs connus pour ce terrain.



MET'MAP, la Météo Aéronautique d'un coup d'oeil ! - Copyright ORBIFLY Décembre 2007 - Disclaimer

ORBIFLY MET'MAP TEAM :

Programmation & Développement : Alexandra Zaïnal
Conception & Développement : Baudouin d'Aumeries
Co-Programmation & Développement : Marc-Olivier Méhu
Soutien technique & logistique : Manuel Goepfert

Contact : metmap@orbifly.com




SOURCES & CREDITS :

   NOAA